Time;durP1;ratioP1;P1;durP2;ratioP2;P2;SDS_P1;SDS_P2;PMS_P1;PMS_P2;Temp;Humidity;BMP_temperature;BMP_pressure;BME280_temperature;BME280_humidity;BME280_pressure;Samples;Min_cycle;Max_cycle;Signal;HPM_P1;HPM_P2
2023/01/19 00:00:53;;;;;;;40.70;27.20;;;;;;;2.49;92.75;99160.53;107740;1251;88203;-55
2023/01/19 00:03:37;;;;;;;41.60;26.30;;;;;;;2.48;92.83;99170.16;107751;1251;94635;-55
2023/01/19 00:06:13;;;;;;;41.70;26.10;;;;;;;2.45;93.00;99179.98;107777;1251;81489;-54
2023/01/19 00:08:56;;;;;;;41.80;26.10;;;;;;;2.49;92.77;99196.88;107781;1251;82561;-54
2023/01/19 00:11:37;;;;;;;41.10;27.20;;;;;;;2.54;92.84;99210.14;107755;1251;98441;-54
2023/01/19 00:14:14;;;;;;;42.90;27.70;;;;;;;2.57;92.66;99207.64;107812;1251;89281;-54
2023/01/19 00:16:55;;;;;;;41.10;26.70;;;;;;;2.59;92.67;99218.77;107743;1251;95205;-54
2023/01/19 00:19:37;;;;;;;42.20;27.80;;;;;;;2.56;92.78;99220.06;107765;1251;81325;-54
2023/01/19 00:22:22;;;;;;;41.40;26.60;;;;;;;2.53;92.94;99227.98;107772;1253;83597;-53
2023/01/19 00:25:05;;;;;;;43.40;28.20;;;;;;;2.55;93.02;99219.20;107786;1251;99511;-54
2023/01/19 00:27:49;;;;;;;40.50;27.80;;;;;;;2.57;92.91;99219.60;107782;1251;86856;-52
2023/01/19 00:30:25;;;;;;;41.50;27.20;;;;;;;2.58;92.86;99231.73;107774;1251;93543;-53
2023/01/19 00:33:04;;;;;;;43.80;28.60;;;;;;;2.60;92.79;99236.61;107732;1251;80371;-53
2023/01/19 00:35:42;;;;;;;42.60;27.70;;;;;;;2.61;92.90;99238.79;107732;1250;82243;-55
2023/01/19 00:38:24;;;;;;;47.70;29.40;;;;;;;2.56;92.98;99240.78;107749;1251;97833;-55
2023/01/19 00:41:07;;;;;;;47.80;28.90;;;;;;;2.55;92.69;99247.89;107754;1251;89529;-55
2023/01/19 00:43:49;;;;;;;44.70;29.80;;;;;;;2.52;92.94;99251.71;107702;1249;95010;-53
2023/01/19 00:46:30;;;;;;;45.80;27.90;;;;;;;2.52;93.05;99261.91;107774;1251;80337;-56
2023/01/19 00:49:11;;;;;;;47.60;29.10;;;;;;;2.51;93.06;99263.07;107725;1249;83468;-56
2023/01/19 00:51:56;;;;;;;46.80;29.30;;;;;;;2.50;93.26;99266.04;107754;1253;98767;-53
2023/01/19 00:54:43;;;;;;;40.80;27.30;;;;;;;2.51;93.19;99265.17;107767;1251;88929;-57
2023/01/19 00:57:28;;;;;;;45.30;28.80;;;;;;;2.53;93.22;99268.17;107778;1251;94973;-57
2023/01/19 01:00:10;;;;;;;;;;;;;;;2.49;93.32;99261.52;107842;1251;79917;-56
2023/01/19 01:02:53;;;;;;;44.60;27.30;;;;;;;2.51;93.47;99254.48;107846;1253;82806;-56
2023/01/19 01:05:40;;;;;;;44.50;26.90;;;;;;;2.57;93.37;99252.14;107815;1253;98539;-54
2023/01/19 01:08:17;;;;;;;38.40;25.90;;;;;;;2.59;93.46;99253.86;107815;1251;89099;-55
2023/01/19 01:10:58;;;;;;;39.10;25.90;;;;;;;2.59;93.47;99252.54;107805;1254;94747;-54
2023/01/19 01:13:43;;;;;;;42.10;26.50;;;;;;;2.61;93.35;99253.29;107759;1253;79855;-55
2023/01/19 01:16:23;;;;;;;45.00;28.30;;;;;;;2.57;93.16;99252.92;107813;1251;82035;-54
2023/01/19 01:19:03;;;;;;;50.80;30.30;;;;;;;2.56;93.14;99250.28;107755;1251;99151;-55
2023/01/19 01:21:45;;;;;;;49.90;31.00;;;;;;;2.53;93.19;99248.25;107762;1251;89478;-53
2023/01/19 01:24:30;;;;;;;49.10;30.20;;;;;;;2.50;93.36;99247.39;107757;1251;95341;-55
2023/01/19 01:27:14;;;;;;;44.50;28.70;;;;;;;2.48;93.38;99242.29;107699;1251;79736;-54
2023/01/19 01:29:58;;;;;;;43.70;28.00;;;;;;;2.49;93.53;99239.65;107717;1251;82946;-56
2023/01/19 01:32:37;;;;;;;;;;;;;;;2.53;93.47;99240.26;107822;1251;96198;-57
2023/01/19 01:35:15;;;;;;;48.70;30.40;;;;;;;2.55;93.38;99238.98;107686;1253;87867;-53
2023/01/19 01:38:01;;;;;;;44.60;27.40;;;;;;;2.50;92.93;99234.85;107722;1251;93978;-54
2023/01/19 01:40:41;;;;;;;41.80;28.80;;;;;;;2.50;93.02;99233.53;107704;1251;80927;-55
2023/01/19 01:43:24;;;;;;;46.20;28.70;;;;;;;2.50;93.26;99235.92;107761;1249;82164;-55
2023/01/19 01:46:07;;;;;;;39.50;24.90;;;;;;;2.48;93.28;99237.49;107738;1251;96762;-54
2023/01/19 01:48:52;;;;;;;41.80;26.80;;;;;;;2.47;93.25;99233.33;107762;1250;88121;-54
2023/01/19 01:51:34;;;;;;;41.40;26.80;;;;;;;2.49;93.21;99229.66;107759;1251;95155;-53
2023/01/19 01:54:18;;;;;;;;;;;;;;;2.46;93.08;99226.84;107764;1251;79537;-53
2023/01/19 01:57:11;;;;;;;41.10;26.30;;;;;;;2.43;92.90;99228.20;107791;1251;82471;-53
2023/01/19 01:59:57;;;;;;;42.00;26.60;;;;;;;2.40;92.99;99227.80;107732;1250;97442;-54
2023/01/19 02:02:53;;;;;;;41.80;27.40;;;;;;;2.35;92.82;99225.72;107806;1251;88488;-54
2023/01/19 02:05:35;;;;;;;44.20;26.50;;;;;;;2.30;92.93;99228.52;107720;1250;94012;-55
2023/01/19 02:14:21;;;;;;;45.90;28.10;;;;;;;2.26;93.43;99219.60;107703;1253;97843;-54
2023/01/19 02:17:04;;;;;;;46.70;29.60;;;;;;;2.24;93.20;99222.15;107757;1251;88529;-54
2023/01/19 02:19:43;;;;;;;;;;;;;;;2.19;93.32;99219.95;107788;1253;95695;-54
2023/01/19 02:22:34;;;;;;;44.90;28.30;;;;;;;2.17;93.32;99222.88;107671;1253;79308;-53
2023/01/19 02:25:21;;;;;;;46.50;28.40;;;;;;;2.19;93.40;99224.05;107775;1251;82465;-54
2023/01/19 02:28:02;;;;;;;52.00;29.60;;;;;;;2.20;93.29;99223.54;107711;1251;97553;-53
2023/01/19 02:30:45;;;;;;;44.30;27.80;;;;;;;2.20;93.28;99226.61;107728;1251;87867;-54
2023/01/19 02:33:28;;;;;;;44.10;27.30;;;;;;;2.19;93.45;99227.41;107708;1250;95636;-53
2023/01/19 02:36:14;;;;;;;48.20;29.00;;;;;;;2.22;93.23;99230.08;107775;1251;79297;-56
2023/01/19 02:38:50;;;;;;;44.60;27.10;;;;;;;2.22;93.17;99228.58;107766;1250;82883;-56
2023/01/19 02:41:29;;;;;;;45.80;27.80;;;;;;;2.20;93.07;99230.17;107764;1250;98368;-54
2023/01/19 02:44:11;;;;;;;46.60;27.90;;;;;;;2.17;93.24;99227.02;107760;1251;87220;-53
2023/01/19 02:46:56;;;;;;;;;;;;;;;2.14;93.18;99227.88;107735;1250;94436;-54
2023/01/19 02:49:35;;;;;;;46.80;28.20;;;;;;;2.12;93.34;99233.03;107740;1253;81566;-55
2023/01/19 02:52:23;;;;;;;47.10;28.00;;;;;;;2.15;93.12;99235.20;107812;1250;81020;-54
2023/01/19 02:55:14;;;;;;;47.60;27.70;;;;;;;2.20;93.20;99233.73;107796;1251;97397;-55
2023/01/19 02:58:00;;;;;;;46.20;27.90;;;;;;;2.25;93.04;99239.90;107793;1251;88675;-54
2023/01/19 03:00:55;;;;;;;42.90;25.90;;;;;;;2.23;93.36;99244.77;107755;1251;95068;-53
2023/01/19 03:03:39;;;;;;;46.00;27.60;;;;;;;2.26;93.30;99251.94;107785;1250;79810;-53
2023/01/19 03:06:37;;;;;;;45.80;27.70;;;;;;;2.31;93.38;99253.00;107757;1251;82963;-53
2023/01/19 03:09:29;;;;;;;41.60;25.70;;;;;;;2.32;93.24;99248.98;107811;1251;98140;-54
2023/01/19 03:12:18;;;;;;;42.30;27.50;;;;;;;2.31;93.22;99234.48;107784;1251;88718;-57
2023/01/19 03:15:08;;;;;;;46.20;29.10;;;;;;;2.36;93.33;99230.18;107843;1251;94438;-56
2023/01/19 03:17:58;;;;;;;45.20;27.90;;;;;;;2.40;93.48;99229.05;107729;1250;79179;-57
2023/01/19 03:20:44;;;;;;;44.40;26.50;;;;;;;2.39;93.52;99227.72;107795;1250;82927;-56
2023/01/19 03:23:28;;;;;;;46.70;28.40;;;;;;;2.41;93.39;99231.45;107815;1251;98131;-56
2023/01/19 03:26:14;;;;;;;44.90;27.50;;;;;;;2.41;93.31;99234.66;107781;1250;89316;-53
2023/01/19 03:28:58;;;;;;;46.80;27.90;;;;;;;2.35;93.19;99238.84;107745;1251;93131;-53
2023/01/19 03:31:42;;;;;;;45.20;28.30;;;;;;;2.30;93.10;99241.30;107714;1251;80599;-54
2023/01/19 03:34:22;;;;;;;44.40;26.80;;;;;;;2.29;93.00;99245.70;107794;1250;81753;-54
2023/01/19 03:37:05;;;;;;;41.90;25.10;;;;;;;2.21;93.03;99249.13;107769;1250;98567;-55
2023/01/19 03:39:47;;;;;;;47.00;27.80;;;;;;;2.18;93.03;99255.95;107803;1250;88280;-54
2023/01/19 03:42:25;;;;;;;47.20;28.20;;;;;;;2.19;93.21;99259.73;107789;1251;95532;-52
2023/01/19 03:45:04;;;;;;;45.60;27.60;;;;;;;2.20;93.30;99257.17;107784;1250;81535;-55
2023/01/19 03:47:46;;;;;;;46.40;27.10;;;;;;;2.26;93.36;99257.96;107774;1251;83590;-54
2023/01/19 03:50:28;;;;;;;44.80;27.90;;;;;;;2.27;93.20;99262.46;107824;1251;97846;-55
2023/01/19 03:53:10;;;;;;;51.30;28.70;;;;;;;2.25;93.32;99267.17;107805;1250;89230;-54
2023/01/19 03:55:53;;;;;;;46.10;28.30;;;;;;;2.28;93.29;99270.39;107795;1251;94959;-54
2023/01/19 03:58:33;;;;;;;47.40;27.80;;;;;;;2.30;93.40;99275.65;107813;1251;76903;-54
2023/01/19 04:01:11;;;;;;;48.50;28.90;;;;;;;2.28;93.42;99274.71;107792;1251;80813;-55
2023/01/19 04:03:49;;;;;;;49.20;27.60;;;;;;;2.32;93.25;99280.15;107794;1251;99110;-54
2023/01/19 04:06:36;;;;;;;47.60;27.50;;;;;;;2.33;93.33;99283.27;107796;1251;89085;-54
2023/01/19 04:09:23;;;;;;;51.40;29.10;;;;;;;2.32;93.33;99291.20;107751;1250;94964;-54
2023/01/19 04:12:03;;;;;;;51.10;29.90;;;;;;;2.37;93.16;99296.89;107742;1253;79714;-54
2023/01/19 04:14:46;;;;;;;49.50;27.60;;;;;;;2.36;93.33;99297.86;107747;1249;82876;-54
2023/01/19 04:17:25;;;;;;;50.80;28.30;;;;;;;2.34;93.32;99296.47;107731;1250;98839;-54
2023/01/19 04:20:06;;;;;;;49.50;30.00;;;;;;;2.36;93.14;99298.20;107748;1251;87747;-54
2023/01/19 04:22:48;;;;;;;51.20;30.10;;;;;;;2.38;93.13;99301.08;107727;1250;95120;-54
2023/01/19 04:25:31;;;;;;;48.70;29.10;;;;;;;2.41;93.18;99305.39;107755;1253;80770;-54
2023/01/19 04:28:08;;;;;;;46.20;28.40;;;;;;;2.44;93.25;99304.71;107695;1250;82190;-54
2023/01/19 04:30:52;;;;;;;47.80;28.20;;;;;;;2.39;93.42;99304.52;107800;1251;98289;-54
2023/01/19 04:33:37;;;;;;;45.90;27.40;;;;;;;2.40;93.20;99309.77;107774;1253;86466;-54
2023/01/19 04:36:13;;;;;;;48.00;28.10;;;;;;;2.37;93.22;99314.70;107752;1251;93178;-56
2023/01/19 04:38:50;;;;;;;49.10;29.00;;;;;;;2.33;93.19;99318.28;107815;1250;78409;-56
2023/01/19 04:41:27;;;;;;;47.00;27.30;;;;;;;2.36;93.08;99317.46;107803;1253;82027;-54
2023/01/19 04:44:04;;;;;;;48.10;27.80;;;;;;;2.35;93.25;99318.96;107801;1251;97329;-54
2023/01/19 04:46:51;;;;;;;48.70;28.50;;;;;;;2.37;93.37;99322.29;107788;1251;88210;-53
2023/01/19 04:49:31;;;;;;;44.70;26.80;;;;;;;2.37;93.49;99328.29;107811;1251;92833;-56
2023/01/19 04:52:08;;;;;;;46.60;26.90;;;;;;;2.41;93.28;99326.88;107807;1251;81354;-56
2023/01/19 04:54:56;;;;;;;49.70;29.20;;;;;;;2.42;93.26;99329.27;107825;1251;82517;-53
2023/01/19 04:57:37;;;;;;;45.70;27.30;;;;;;;2.42;93.38;99332.05;107750;1250;98961;-54
2023/01/19 05:00:15;;;;;;;48.90;26.80;;;;;;;2.39;93.39;99331.56;107822;1251;89048;-54
2023/01/19 05:02:54;;;;;;;47.50;28.10;;;;;;;2.40;93.45;99339.94;107720;1251;93481;-54
2023/01/19 05:05:29;;;;;;;46.60;27.70;;;;;;;2.40;93.36;99339.55;107745;1250;81427;-56
2023/01/19 05:08:07;;;;;;;50.40;28.60;;;;;;;2.44;93.54;99342.34;107767;1250;82622;-56
2023/01/19 05:10:48;;;;;;;46.60;28.20;;;;;;;2.48;93.52;99346.90;107815;1250;99137;-57
2023/01/19 05:13:33;;;;;;;44.20;27.30;;;;;;;2.52;93.63;99346.85;107824;1253;88875;-57
2023/01/19 05:16:12;;;;;;;52.00;30.30;;;;;;;2.53;93.57;99349.08;107757;1253;95324;-53
2023/01/19 05:18:55;;;;;;;48.30;28.50;;;;;;;2.55;93.51;99355.52;107790;1251;79759;-54
2023/01/19 05:21:34;;;;;;;46.60;28.20;;;;;;;2.52;93.62;99355.16;107777;1253;82888;-56
2023/01/19 05:24:12;;;;;;;49.90;30.10;;;;;;;2.50;93.59;99349.37;107800;1250;98692;-56
2023/01/19 05:26:54;;;;;;;46.50;27.40;;;;;;;2.54;93.62;99348.38;107750;1251;89291;-55
2023/01/19 05:29:31;;;;;;;48.30;29.60;;;;;;;2.52;93.49;99341.27;107759;1249;95868;-52
2023/01/19 05:32:08;;;;;;;47.20;29.80;;;;;;;2.51;93.42;99341.41;107743;1250;81578;-54
2023/01/19 05:34:49;;;;;;;49.70;28.60;;;;;;;2.51;93.20;99342.28;107759;1250;82092;-55
2023/01/19 05:37:35;;;;;;;49.60;28.60;;;;;;;2.54;93.19;99351.94;107744;1250;98376;-56
2023/01/19 05:40:13;;;;;;;46.00;27.90;;;;;;;2.59;93.28;99363.15;107789;1251;89479;-54
2023/01/19 05:42:59;;;;;;;47.60;28.90;;;;;;;2.56;93.62;99370.52;107765;1251;94921;-54
2023/01/19 05:45:38;;;;;;;45.10;28.50;;;;;;;2.65;93.52;99371.75;107774;1250;78964;-56
2023/01/19 05:48:13;;;;;;;46.00;27.90;;;;;;;2.69;93.23;99374.42;107867;1250;80448;-58
2023/01/19 05:50:51;;;;;;;41.90;26.70;;;;;;;2.72;93.21;99372.92;107966;1251;98586;-58
2023/01/19 05:53:29;;;;;;;45.40;27.50;;;;;;;2.73;93.42;99367.07;107861;1252;88656;-56
2023/01/19 05:56:11;;;;;;;45.00;28.30;;;;;;;2.80;93.31;99376.85;107815;1249;94296;-54
2023/01/19 05:58:54;;;;;;;43.70;27.70;;;;;;;2.81;93.25;99374.02;107780;1251;79077;-54
2023/01/19 06:01:38;;;;;;;46.70;29.80;;;;;;;2.78;93.43;99376.29;107753;1251;83339;-54
2023/01/19 06:04:12;;;;;;;44.40;26.60;;;;;;;2.80;93.15;99381.73;107752;1251;97683;-53
2023/01/19 06:06:56;;;;;;;48.00;27.80;;;;;;;2.79;93.19;99388.84;107705;1253;89556;-54
2023/01/19 06:09:34;;;;;;;44.60;27.60;;;;;;;2.78;92.97;99392.65;107753;1253;95184;-54
2023/01/19 06:12:09;;;;;;;43.50;26.10;;;;;;;2.79;92.97;99394.02;107764;1251;81081;-54
2023/01/19 06:14:43;;;;;;;41.20;24.80;;;;;;;2.78;92.98;99391.48;107794;1253;83201;-55
2023/01/19 06:17:22;;;;;;;40.10;25.50;;;;;;;2.79;93.01;99390.27;107748;1251;98602;-55
2023/01/19 06:20:05;;;;;;;42.80;26.50;;;;;;;2.77;92.96;99397.55;107774;1251;88015;-54
2023/01/19 06:22:41;;;;;;;41.10;25.10;;;;;;;2.79;92.86;99406.41;107732;1249;94147;-54
2023/01/19 06:25:19;;;;;;;40.80;25.70;;;;;;;2.77;92.77;99419.08;107729;1250;80558;-53
2023/01/19 06:28:01;;;;;;;42.60;25.20;;;;;;;2.83;92.92;99430.89;107791;1251;81882;-56
2023/01/19 06:30:38;;;;;;;36.10;22.90;;;;;;;2.87;92.78;99439.19;107383;1250;546526;-54
2023/01/19 06:33:23;;;;;;;42.20;25.00;;;;;;;2.82;92.81;99445.56;107757;1251;87450;-56
2023/01/19 06:36:05;;;;;;;39.20;25.40;;;;;;;2.81;93.03;99453.13;107820;1252;94502;-56
2023/01/19 06:38:48;;;;;;;38.70;24.40;;;;;;;2.81;92.89;99455.25;107743;1250;79424;-55
2023/01/19 06:41:29;;;;;;;40.80;25.90;;;;;;;2.84;92.99;99461.66;107840;1253;82914;-54
2023/01/19 06:44:11;;;;;;;39.90;25.40;;;;;;;2.88;92.96;99463.40;107794;1251;98272;-54
2023/01/19 06:46:47;;;;;;;41.20;25.00;;;;;;;2.89;92.83;99467.03;107732;1250;89378;-54
2023/01/19 06:49:29;;;;;;;36.90;23.40;;;;;;;2.83;92.69;99470.70;107755;1253;93912;-55
2023/01/19 06:52:07;;;;;;;37.60;24.40;;;;;;;2.78;92.77;99479.74;107813;1251;80881;-56
2023/01/19 06:54:46;;;;;;;40.20;23.60;;;;;;;2.80;92.67;99479.17;107795;1250;81754;-54
2023/01/19 06:57:31;;;;;;;35.20;22.90;;;;;;;2.75;92.61;99476.16;107736;1250;97785;-54
2023/01/19 07:00:10;;;;;;;35.30;22.50;;;;;;;2.75;92.79;99475.17;107869;1251;89131;-56
2023/01/19 07:02:51;;;;;;;36.00;22.40;;;;;;;2.77;92.72;99476.39;107679;1250;93566;-56
2023/01/19 07:05:44;;;;;;;33.30;21.30;;;;;;;2.83;92.68;99473.23;107710;1251;81554;-55
2023/01/19 07:08:21;;;;;;;30.50;20.20;;;;;;;2.90;92.51;99469.41;107730;1253;82565;-54
2023/01/19 07:11:03;;;;;;;33.30;20.00;;;;;;;2.87;92.38;99469.73;107753;1250;96349;-54
2023/01/19 07:13:43;;;;;;;34.10;21.70;;;;;;;2.88;92.51;99463.73;107737;1251;88112;-58
2023/01/19 07:16:18;;;;;;;34.90;22.10;;;;;;;2.88;92.51;99456.80;107731;1250;94712;-52
2023/01/19 07:19:01;;;;;;;33.80;21.60;;;;;;;2.90;92.70;99454.44;107686;1249;80149;-54
2023/01/19 07:21:42;;;;;;;32.30;21.20;;;;;;;2.95;92.61;99450.37;107775;1250;83153;-55
2023/01/19 07:24:20;;;;;;;33.00;21.80;;;;;;;2.98;92.55;99452.22;107698;1251;99279;-54
2023/01/19 07:26:59;;;;;;;31.50;20.30;;;;;;;2.96;92.66;99458.83;107661;1251;88070;-53
2023/01/19 07:29:42;;;;;;;34.60;21.90;;;;;;;2.98;92.51;99464.75;107700;1250;94764;-54
2023/01/19 07:32:16;;;;;;;31.70;20.70;;;;;;;2.99;92.53;99460.29;107695;1251;81435;-55
2023/01/19 07:34:50;;;;;;;;;;;;;;;2.98;92.53;99459.13;107683;1249;82905;-54
2023/01/19 07:37:26;;;;;;;30.20;18.90;;;;;;;2.98;92.66;99451.63;107713;1250;97313;-57
2023/01/19 07:40:05;;;;;;;30.80;20.00;;;;;;;3.00;92.49;99453.96;107767;1249;87718;-57
2023/01/19 07:42:45;;;;;;;31.00;21.30;;;;;;;3.02;92.39;99459.09;107748;1250;93173;-57
2023/01/19 07:45:29;;;;;;;31.70;20.80;;;;;;;3.01;92.43;99459.92;107745;1250;79528;-53
2023/01/19 07:48:15;;;;;;;32.50;20.80;;;;;;;3.01;92.47;99460.27;107746;1251;82598;-53
2023/01/19 07:51:07;;;;;;;33.10;21.40;;;;;;;3.07;92.34;99465.84;107750;1251;99533;-52
2023/01/19 07:53:45;;;;;;;30.60;20.20;;;;;;;3.07;92.36;99471.15;107715;1251;88879;-56
2023/01/19 07:56:23;;;;;;;31.60;20.70;;;;;;;3.09;92.38;99476.70;107734;1250;94917;-54
2023/01/19 07:59:06;;;;;;;33.40;21.60;;;;;;;3.08;92.36;99487.98;107721;1250;80532;-54
2023/01/19 08:01:45;;;;;;;34.20;22.40;;;;;;;3.10;92.50;99497.86;107753;1249;82504;-56
2023/01/19 08:04:23;;;;;;;33.20;21.60;;;;;;;3.11;92.49;99504.34;107702;1251;98378;-53
2023/01/19 08:07:05;;;;;;;32.20;20.40;;;;;;;3.17;92.32;99514.22;107729;1251;87511;-54
2023/01/19 08:09:39;;;;;;;29.40;20.30;;;;;;;3.13;92.48;99507.04;107745;1250;95057;-55
2023/01/19 08:12:14;;;;;;;31.60;20.40;;;;;;;3.10;92.29;99501.48;107741;1251;80273;-55
2023/01/19 08:14:50;;;;;;;31.00;19.70;;;;;;;3.17;92.13;99498.08;107754;1251;83398;-56
2023/01/19 08:17:30;;;;;;;28.40;19.10;;;;;;;3.23;92.15;99500.05;107720;1251;97243;-57
2023/01/19 08:20:12;;;;;;;29.20;19.60;;;;;;;3.25;92.08;99492.31;107722;1253;86841;-54
2023/01/19 08:22:50;;;;;;;29.30;19.00;;;;;;;3.29;91.98;99483.52;107733;1251;96726;-53
2023/01/19 08:25:34;;;;;;;29.10;19.20;;;;;;;3.28;91.92;99480.44;107719;1254;79107;-55
2023/01/19 08:28:17;;;;;;;30.30;19.50;;;;;;;3.26;91.90;99481.89;107735;1251;83415;-55
2023/01/19 08:30:54;;;;;;;28.20;18.70;;;;;;;3.24;91.80;99481.40;107757;1251;98297;-56
2023/01/19 08:33:32;;;;;;;29.90;19.00;;;;;;;3.21;91.68;99478.70;107846;1251;88888;-56
2023/01/19 08:36:11;;;;;;;31.40;19.60;;;;;;;3.20;91.82;99474.39;107783;1251;92969;-53
2023/01/19 08:38:56;;;;;;;28.80;18.40;;;;;;;3.19;91.71;99471.65;107730;1250;80016;-54
2023/01/19 08:41:33;;;;;;;29.30;19.60;;;;;;;3.18;91.80;99473.37;107782;1251;82835;-54
2023/01/19 08:44:10;;;;;;;30.00;19.70;;;;;;;3.19;91.85;99476.69;107762;1251;97724;-55
2023/01/19 08:46:51;;;;;;;30.20;19.20;;;;;;;3.23;91.91;99479.20;107790;1250;89420;-53
2023/01/19 08:49:37;;;;;;;30.20;20.00;;;;;;;3.22;91.64;99473.66;107766;1251;94135;-55
2023/01/19 08:52:18;;;;;;;33.90;20.60;;;;;;;3.23;91.56;99476.23;107696;1251;78612;-56
2023/01/19 08:55:02;;;;;;;33.60;21.80;;;;;;;3.27;91.78;99477.75;107732;1250;81995;-55
2023/01/19 08:57:44;;;;;;;32.90;20.90;;;;;;;3.22;91.69;99487.67;107717;1250;99156;-55
2023/01/19 09:00:23;;;;;;;30.40;19.70;;;;;;;3.22;91.61;99492.38;107762;1250;88412;-54
2023/01/19 09:03:08;;;;;;;28.80;19.50;;;;;;;3.23;91.42;99494.68;107670;1251;93433;-53
2023/01/19 09:05:52;;;;;;;30.20;19.80;;;;;;;3.21;91.40;99499.55;107703;1254;80705;-54
2023/01/19 09:08:32;;;;;;;32.50;20.20;;;;;;;3.20;91.40;99504.23;107760;1251;83064;-53
2023/01/19 09:11:17;;;;;;;28.80;18.60;;;;;;;3.22;91.51;99504.95;107751;1251;98904;-56
2023/01/19 09:13:55;;;;;;;26.30;18.10;;;;;;;3.26;91.42;99506.30;107739;1250;89260;-55
2023/01/19 09:16:39;;;;;;;27.50;18.60;;;;;;;3.25;91.41;99508.13;107717;1251;94501;-56
2023/01/19 09:19:19;;;;;;;28.90;18.40;;;;;;;3.21;91.47;99510.75;107748;1253;78555;-54
2023/01/19 09:22:00;;;;;;;31.50;20.90;;;;;;;3.17;91.57;99508.85;107719;1253;80662;-54
2023/01/19 09:24:39;;;;;;;33.70;20.70;;;;;;;3.23;91.62;99505.00;107758;1251;98889;-55
2023/01/19 09:27:17;;;;;;;33.00;21.40;;;;;;;3.24;91.43;99507.73;107756;1251;89398;-56
2023/01/19 09:29:54;;;;;;;33.80;21.00;;;;;;;3.24;91.31;99515.34;107793;1251;93846;-54
2023/01/19 09:32:36;;;;;;;29.70;19.80;;;;;;;3.25;91.29;99518.88;107780;1250;80337;-54
2023/01/19 09:35:13;;;;;;;28.10;18.50;;;;;;;3.27;91.27;99520.07;107800;1251;81551;-54
2023/01/19 09:37:58;;;;;;;28.60;20.00;;;;;;;3.17;91.33;99524.92;107791;1250;99312;-54
2023/01/19 09:40:50;;;;;;;28.10;18.10;;;;;;;3.22;91.41;99516.66;107745;1251;88852;-56
2023/01/19 09:43:39;;;;;;;26.80;17.90;;;;;;;3.20;91.15;99515.35;107775;1253;95733;-57
2023/01/19 09:46:27;;;;;;;24.20;16.00;;;;;;;3.23;90.87;99521.04;107748;1251;79234;-55
2023/01/19 09:49:16;;;;;;;25.50;17.30;;;;;;;3.23;90.99;99514.26;107777;1251;82484;-55
2023/01/19 09:51:53;;;;;;;27.80;18.50;;;;;;;3.27;90.91;99517.38;107773;1251;98687;-54
2023/01/19 09:54:48;;;;;;;29.20;18.80;;;;;;;3.22;90.82;99517.59;107673;1251;89075;-55
2023/01/19 09:57:26;;;;;;;;;;;;;;;3.24;90.76;99512.05;107646;1251;94374;-53
2023/01/19 10:00:16;;;;;;;22.00;15.20;;;;;;;3.22;90.68;99509.55;107718;1251;80024;-57
2023/01/19 10:02:59;;;;;;;24.50;16.60;;;;;;;3.17;90.41;99506.21;107737;1253;82196;-58
2023/01/19 10:05:47;;;;;;;25.90;16.50;;;;;;;3.10;90.72;99502.70;107730;1254;96951;-52
2023/01/19 10:08:33;;;;;;;26.10;17.70;;;;;;;3.12;90.54;99501.23;107697;1250;88907;-54
2023/01/19 10:11:27;;;;;;;28.30;17.70;;;;;;;3.13;90.54;99505.88;107628;1251;94500;-54
2023/01/19 10:14:20;;;;;;;28.00;19.00;;;;;;;3.17;90.76;99508.52;107632;1251;82225;-54
2023/01/19 10:17:12;;;;;;;28.10;18.80;;;;;;;3.18;90.82;99506.79;107786;1251;83154;-56
2023/01/19 10:19:58;;;;;;;30.10;20.50;;;;;;;3.16;90.74;99497.73;107804;1250;98707;-54
2023/01/19 10:22:38;;;;;;;30.50;19.00;;;;;;;3.12;90.59;99491.09;107688;1251;89603;-56
2023/01/19 10:25:23;;;;;;;31.10;19.40;;;;;;;3.06;90.62;99493.31;107670;1254;96052;-56
2023/01/19 10:28:08;;;;;;;32.10;19.90;;;;;;;3.07;90.48;99497.98;107729;1251;80463;-56
2023/01/19 10:30:52;;;;;;;32.50;21.40;;;;;;;3.04;90.38;99496.55;107783;1251;82827;-54
2023/01/19 10:33:38;;;;;;;32.60;21.60;;;;;;;3.03;90.64;99490.25;107723;1254;98532;-54
2023/01/19 10:36:21;;;;;;;29.50;20.00;;;;;;;3.09;90.69;99486.27;107762;1251;88661;-54
2023/01/19 10:39:01;;;;;;;32.10;19.90;;;;;;;3.08;90.91;99489.71;107718;1251;95409;-55
2023/01/19 10:41:44;;;;;;;30.90;20.00;;;;;;;3.06;90.77;99489.58;107708;1250;81801;-54
2023/01/19 10:44:35;;;;;;;30.40;19.80;;;;;;;3.05;90.88;99480.11;107747;1251;82333;-55
2023/01/19 10:47:22;;;;;;;30.50;19.60;;;;;;;3.04;90.81;99478.30;107697;1251;97969;-54
2023/01/19 10:50:09;;;;;;;35.10;21.60;;;;;;;3.05;90.82;99476.41;107687;1251;88758;-55
2023/01/19 10:52:54;;;;;;;30.30;19.80;;;;;;;3.08;90.84;99478.91;107665;1251;95063;-54
2023/01/19 10:55:40;;;;;;;27.10;18.60;;;;;;;3.10;91.05;99475.68;107671;1251;81794;-54
2023/01/19 10:58:35;;;;;;;29.70;20.60;;;;;;;3.15;90.73;99472.62;107701;1250;81926;-55
2023/01/19 11:01:23;;;;;;;30.60;20.60;;;;;;;3.21;90.83;99478.16;107702;1251;98241;-57
2023/01/19 11:04:19;;;;;;;31.20;20.90;;;;;;;3.19;90.79;99482.27;107700;1251;89164;-54
2023/01/19 11:07:16;;;;;;;32.30;21.40;;;;;;;3.22;90.63;99482.20;107694;1250;95187;-56
2023/01/19 11:10:20;;;;;;;30.80;21.50;;;;;;;3.17;90.47;99485.56;107675;1251;80294;-56
2023/01/19 11:13:06;;;;;;;31.40;21.20;;;;;;;3.13;90.52;99485.66;107752;1251;82854;-57
2023/01/19 11:15:51;;;;;;;34.80;23.40;;;;;;;3.11;90.44;99488.52;107748;1251;97111;-54
2023/01/19 11:18:31;;;;;;;34.00;22.60;;;;;;;3.14;90.59;99484.46;107698;1251;89619;-53
2023/01/19 11:21:12;;;;;;;36.80;22.10;;;;;;;3.14;90.48;99478.40;107742;1250;94670;-60
2023/01/19 11:23:58;;;;;;;33.30;22.20;;;;;;;3.22;90.43;99475.64;107764;1251;80074;-54
2023/01/19 11:26:46;;;;;;;35.30;22.90;;;;;;;3.26;90.47;99481.77;107829;1254;81808;-57
2023/01/19 11:29:27;;;;;;;32.30;21.70;;;;;;;3.27;90.36;99481.73;107827;1251;99227;-55
2023/01/19 11:32:21;;;;;;;32.40;21.70;;;;;;;3.30;90.52;99475.94;107836;1251;89084;-56
2023/01/19 11:35:00;;;;;;;35.50;22.50;;;;;;;3.28;90.41;99474.01;107784;1251;96000;-56
2023/01/19 11:37:41;;;;;;;35.40;22.70;;;;;;;3.31;90.41;99468.04;107739;1251;79411;-56
2023/01/19 11:40:20;;;;;;;33.10;21.30;;;;;;;3.29;90.43;99461.96;107754;1251;81680;-54
2023/01/19 11:43:01;;;;;;;39.90;23.10;;;;;;;3.28;90.46;99459.95;107676;1251;96394;-53
2023/01/19 11:45:45;;;;;;;36.10;22.10;;;;;;;3.32;90.32;99453.65;107733;1251;86291;-55
2023/01/19 11:48:29;;;;;;;36.90;23.60;;;;;;;3.35;90.31;99453.33;107700;1251;93763;-55
2023/01/19 11:51:16;;;;;;;34.20;22.00;;;;;;;3.39;90.52;99455.17;107611;1251;79383;-53
2023/01/19 11:54:22;;;;;;;37.70;22.70;;;;;;;3.45;90.58;99446.95;107687;1251;80720;-54
2023/01/19 11:56:59;;;;;;;;;;;;;;;3.53;90.48;99439.86;107706;1250;98661;-55
2023/01/19 11:59:45;;;;;;;35.60;22.30;;;;;;;3.61;90.45;99449.21;107733;1251;88846;-55
2023/01/19 12:02:26;;;;;;;;;;;;;;;3.63;90.47;99444.90;107698;1255;95377;-54
2023/01/19 12:05:14;;;;;;;35.70;22.10;;;;;;;3.62;90.27;99445.00;107776;1251;79716;-57
2023/01/19 12:08:01;;;;;;;34.20;21.70;;;;;;;3.69;90.13;99443.40;107727;1251;82796;-57
2023/01/19 12:10:45;;;;;;;36.10;22.40;;;;;;;3.75;90.16;99443.39;107755;1255;97950;-55
2023/01/19 12:13:29;;;;;;;31.60;19.70;;;;;;;3.75;89.89;99445.48;107731;1251;86650;-55
2023/01/19 12:16:11;;;;;;;31.60;21.50;;;;;;;3.80;89.89;99442.81;107719;1254;94409;-54
2023/01/19 12:18:56;;;;;;;35.20;22.10;;;;;;;3.80;90.24;99441.91;107779;1251;81217;-54
2023/01/19 12:21:38;;;;;;;40.50;23.00;;;;;;;3.78;90.09;99442.98;107695;1253;81376;-55
2023/01/19 12:24:27;;;;;;;40.00;23.80;;;;;;;3.81;90.28;99442.11;107664;1256;98190;-54
2023/01/19 12:27:20;;;;;;;39.20;24.50;;;;;;;3.83;90.41;99440.14;107611;1253;88400;-54
2023/01/19 12:30:03;;;;;;;34.30;22.40;;;;;;;3.88;90.19;99438.86;107597;1256;95671;-55
2023/01/19 12:32:42;;;;;;;33.50;22.50;;;;;;;3.90;89.94;99437.25;107617;1253;79081;-54
2023/01/19 12:35:59;;;;;;;37.50;23.10;;;;;;;3.91;89.90;99439.77;107578;1253;82897;-56